Time;durP1;ratioP1;P1;durP2;ratioP2;P2;SDS_P1;SDS_P2;PMS_P1;PMS_P2;Temp;Humidity;BMP_temperature;BMP_pressure;BME280_temperature;BME280_humidity;BME280_pressure;Samples;Min_cycle;Max_cycle;Signal;HPM_P1;HPM_P2
2023/06/30 00:00:36;;;;;;;9.25;7.55;;;19.10;99.90;;;;;;5011794;28;20040;-76
2023/06/30 00:03:04;;;;;;;8.60;6.88;;;19.10;99.90;;;;;;5012490;28;20030;-75
2023/06/30 00:05:30;;;;;;;7.53;6.53;;;19.30;99.90;;;;;;5011917;28;20041;-75
2023/06/30 00:07:58;;;;;;;7.60;6.90;;;19.30;99.90;;;;;;5012434;28;20489;-75
2023/06/30 00:10:25;;;;;;;10.82;7.22;;;19.20;99.90;;;;;;5012452;28;20041;-76
2023/06/30 00:12:51;;;;;;;9.27;8.45;;;19.30;99.90;;;;;;5014801;28;20038;-75
2023/06/30 00:15:17;;;;;;;7.63;6.88;;;19.30;99.90;;;;;;5015440;28;20026;-75
2023/06/30 00:17:43;;;;;;;7.88;6.90;;;19.20;99.90;;;;;;5016096;28;20388;-74
2023/06/30 00:20:11;;;;;;;7.88;7.00;;;19.20;99.90;;;;;;5014169;28;20045;-76
2023/06/30 00:22:37;;;;;;;13.55;7.22;;;19.10;99.90;;;;;;5016040;28;20458;-75
2023/06/30 00:25:04;;;;;;;7.57;6.82;;;18.90;99.90;;;;;;5016103;28;20026;-75
2023/06/30 00:27:30;;;;;;;9.70;7.10;;;19.00;99.90;;;;;;5015553;28;20045;-76
2023/06/30 00:29:56;;;;;;;8.48;7.40;;;19.00;99.90;;;;;;5015826;28;20383;-75
2023/06/30 00:32:22;;;;;;;10.10;6.60;;;19.00;99.90;;;;;;5013828;28;20050;-75
2023/06/30 00:34:49;;;;;;;10.02;6.18;;;19.10;99.90;;;;;;5014326;28;20048;-75
2023/06/30 00:37:15;;;;;;;10.68;7.18;;;19.20;99.90;;;;;;4985318;28;20038;-75
2023/06/30 00:39:41;;;;;;;7.10;6.20;;;19.20;99.90;;;;;;4976735;28;20037;-75
2023/06/30 00:42:08;;;;;;;7.35;6.32;;;19.20;99.90;;;;;;5008216;28;20026;-75
2023/06/30 00:44:34;;;;;;;8.88;6.90;;;19.20;99.90;;;;;;5015705;28;20045;-75
2023/06/30 00:47:00;;;;;;;10.73;8.05;;;19.20;99.90;;;;;;5014807;28;20034;-75
2023/06/30 00:49:27;;;;;;;8.23;7.40;;;19.00;99.90;;;;;;4996833;28;20061;-75
2023/06/30 00:51:54;;;;;;;9.77;6.90;;;19.00;99.90;;;;;;5008804;28;20033;-75
2023/06/30 00:54:20;;;;;;;9.57;7.93;;;19.00;99.90;;;;;;5015635;28;20034;-75
2023/06/30 00:56:46;;;;;;;9.20;7.60;;;18.90;99.90;;;;;;5013871;28;20037;-75
2023/06/30 00:59:12;;;;;;;10.65;8.23;;;18.90;99.90;;;;;;5015295;28;20132;-75
2023/06/30 01:02:08;;;;;;;12.13;8.77;;;18.90;99.90;;;;;;5014353;28;20030;-74
2023/06/30 01:04:37;;;;;;;9.95;8.50;;;18.90;99.90;;;;;;5005291;28;20057;-75
2023/06/30 01:07:20;;;;;;;11.05;7.72;;;18.70;99.90;;;;;;5014912;28;20494;-75
2023/06/30 01:10:25;;;;;;;9.93;8.73;;;18.60;99.90;;;;;;5014033;28;20034;-75
2023/06/30 01:12:51;;;;;;;9.77;8.57;;;18.60;99.90;;;;;;4993011;28;20436;-75
2023/06/30 01:15:17;;;;;;;10.07;9.05;;;18.60;99.90;;;;;;4976605;28;20038;-74
2023/06/30 01:17:48;;;;;;;13.65;7.10;;;18.50;99.90;;;;;;4976745;28;20030;-76
2023/06/30 01:20:16;;;;;;;8.73;6.75;;;18.40;99.90;;;;;;4976822;28;20038;-75
2023/06/30 01:23:15;;;;;;;10.35;6.82;;;18.50;99.90;;;;;;4960980;28;20061;-75
2023/06/30 01:25:41;;;;;;;9.50;7.45;;;18.30;99.90;;;;;;4938080;29;20070;-75
2023/06/30 01:28:08;;;;;;;8.57;7.72;;;18.20;99.90;;;;;;4938112;29;20039;-76
2023/06/30 01:30:34;;;;;;;8.98;7.88;;;18.20;99.90;;;;;;4937688;29;20429;-75
2023/06/30 01:33:00;;;;;;;10.98;7.88;;;18.00;99.90;;;;;;4937951;29;20039;-75
2023/06/30 01:35:26;;;;;;;13.52;7.70;;;18.00;99.90;;;;;;4953180;28;20032;-75
2023/06/30 01:37:53;;;;;;;10.05;7.15;;;18.00;99.90;;;;;;4935070;29;20059;-75
2023/06/30 01:40:20;;;;;;;11.82;7.15;;;18.20;99.90;;;;;;4935953;29;20050;-75
2023/06/30 01:42:47;;;;;;;15.63;8.65;;;18.20;99.90;;;;;;4938183;29;20055;-76
2023/06/30 01:45:13;;;;;;;10.40;7.55;;;18.20;99.90;;;;;;4937408;28;20050;-75
2023/06/30 01:47:39;;;;;;;12.23;9.43;;;18.20;99.90;;;;;;4934543;29;20047;-75
2023/06/30 01:50:06;;;;;;;11.38;9.13;;;18.10;99.90;;;;;;4934726;29;20386;-75
2023/06/30 01:52:32;;;;;;;15.18;9.15;;;18.00;99.90;;;;;;4953511;29;20062;-75
2023/06/30 01:54:58;;;;;;;11.32;7.70;;;18.00;99.90;;;;;;4938089;29;20035;-75
2023/06/30 01:57:24;;;;;;;13.40;8.95;;;18.20;99.90;;;;;;4953481;29;20028;-75
2023/06/30 01:59:50;;;;;;;10.27;8.13;;;18.20;99.90;;;;;;4953139;29;20046;-75
2023/06/30 02:02:16;;;;;;;12.23;7.85;;;18.20;99.90;;;;;;4956391;28;20046;-75
2023/06/30 02:04:42;;;;;;;16.48;8.73;;;18.20;99.90;;;;;;4984717;28;20039;-75
2023/06/30 02:07:08;;;;;;;10.05;7.00;;;18.30;99.90;;;;;;4993764;28;20121;-75
2023/06/30 02:09:35;;;;;;;11.48;7.50;;;18.20;99.90;;;;;;4992754;28;20030;-76
2023/06/30 02:12:01;;;;;;;11.20;6.75;;;18.20;99.90;;;;;;5007687;28;20034;-75
2023/06/30 02:14:27;;;;;;;13.60;6.60;;;18.20;99.90;;;;;;4998649;28;20045;-75
2023/06/30 02:16:53;;;;;;;10.00;6.40;;;18.20;99.90;;;;;;4992140;28;20038;-75
2023/06/30 02:19:23;;;;;;;10.85;7.95;;;18.30;99.90;;;;;;4992884;28;20502;-75
2023/06/30 02:21:50;;;;;;;12.38;7.18;;;18.30;99.90;;;;;;4992872;28;20038;-74
2023/06/30 02:24:17;;;;;;;10.85;7.07;;;18.30;99.90;;;;;;5007525;28;20158;-75
2023/06/30 02:26:44;;;;;;;8.30;7.03;;;18.30;99.90;;;;;;4992108;28;20037;-75
2023/06/30 02:29:10;;;;;;;12.48;7.22;;;18.30;99.90;;;;;;5007732;28;20031;-74
2023/06/30 02:31:36;;;;;;;12.70;6.68;;;18.30;99.90;;;;;;5004345;28;20495;-75
2023/06/30 02:34:03;;;;;;;10.25;6.85;;;18.20;99.90;;;;;;5010418;28;20049;-75
2023/06/30 02:36:29;;;;;;;14.98;7.45;;;18.20;99.90;;;;;;5000996;28;20487;-74
2023/06/30 02:38:55;;;;;;;11.70;6.65;;;18.20;99.90;;;;;;4993765;28;20034;-74
2023/06/30 02:41:21;;;;;;;10.27;6.45;;;18.30;99.90;;;;;;5003460;28;20025;-74
2023/06/30 02:43:48;;;;;;;9.02;6.82;;;18.40;99.90;;;;;;5013133;28;20041;-75
2023/06/30 02:46:14;;;;;;;12.90;6.53;;;18.40;99.90;;;;;;5012635;28;20025;-74
2023/06/30 02:48:40;;;;;;;12.65;6.50;;;18.40;99.90;;;;;;5000988;28;20034;-75
2023/06/30 02:51:06;;;;;;;10.80;7.03;;;18.50;99.90;;;;;;5001171;28;20034;-75
2023/06/30 02:53:33;;;;;;;10.73;6.50;;;18.50;99.90;;;;;;5013288;28;20053;-74
2023/06/30 02:55:59;;;;;;;9.18;7.22;;;18.50;99.90;;;;;;5012960;28;20026;-74
2023/06/30 02:58:25;;;;;;;11.27;6.88;;;18.60;99.90;;;;;;5012877;28;20049;-75
2023/06/30 03:00:51;;;;;;;13.27;7.45;;;18.60;99.90;;;;;;5012485;28;20034;-75
2023/06/30 03:03:17;;;;;;;13.43;7.20;;;18.60;99.90;;;;;;5013324;28;20049;-74
2023/06/30 03:05:43;;;;;;;8.65;6.82;;;18.60;99.90;;;;;;5012704;28;20030;-76
2023/06/30 03:08:10;;;;;;;9.63;8.45;;;18.50;99.90;;;;;;5012988;28;20040;-75
2023/06/30 03:10:36;;;;;;;11.52;7.85;;;18.50;99.90;;;;;;5011402;28;20026;-75
2023/06/30 03:13:02;;;;;;;10.77;8.88;;;18.50;99.90;;;;;;5012579;28;20052;-75
2023/06/30 03:15:28;;;;;;;11.48;10.07;;;18.60;99.90;;;;;;5012525;28;20581;-75
2023/06/30 03:17:55;;;;;;;12.65;8.98;;;18.60;99.90;;;;;;5013042;28;20030;-75
2023/06/30 03:20:21;;;;;;;13.98;10.90;;;18.60;99.90;;;;;;5012439;28;20379;-75
2023/06/30 03:22:47;;;;;;;14.68;11.43;;;18.60;99.90;;;;;;5012835;28;20018;-75
2023/06/30 03:25:13;;;;;;;13.57;11.70;;;18.50;99.90;;;;;;5012667;28;20387;-75
2023/06/30 03:27:40;;;;;;;14.35;11.88;;;18.60;99.90;;;;;;5012574;28;20041;-75
2023/06/30 03:30:06;;;;;;;12.02;9.38;;;18.50;99.90;;;;;;5012358;28;20034;-75
2023/06/30 03:32:32;;;;;;;11.10;7.82;;;18.50;99.90;;;;;;5012370;28;20034;-75
2023/06/30 03:35:02;;;;;;;9.85;8.52;;;18.50;99.90;;;;;;5012695;28;20041;-75
2023/06/30 03:37:30;;;;;;;12.65;7.45;;;18.50;99.90;;;;;;4995141;28;20030;-75
2023/06/30 03:39:56;;;;;;;9.68;7.68;;;18.50;99.90;;;;;;4993062;28;20041;-75
2023/06/30 03:42:22;;;;;;;10.35;8.48;;;18.40;99.90;;;;;;5010274;28;20426;-75
2023/06/30 03:44:48;;;;;;;9.32;8.20;;;18.40;99.90;;;;;;5012547;28;20038;-75
2023/06/30 03:47:14;;;;;;;8.55;7.03;;;18.40;99.90;;;;;;5012984;28;20376;-75
2023/06/30 03:49:41;;;;;;;8.70;6.95;;;18.40;99.90;;;;;;4996847;28;20119;-74
2023/06/30 03:52:07;;;;;;;13.40;7.32;;;18.30;99.90;;;;;;4996874;28;20035;-75
2023/06/30 03:54:33;;;;;;;10.02;6.72;;;18.30;99.90;;;;;;4996933;28;20038;-74
2023/06/30 03:56:59;;;;;;;10.90;7.15;;;18.30;99.90;;;;;;5007475;28;20072;-75
2023/06/30 03:59:25;;;;;;;11.23;6.75;;;18.30;99.90;;;;;;5017052;28;20065;-74
2023/06/30 04:01:52;;;;;;;10.68;6.97;;;18.20;99.90;;;;;;5015537;28;20034;-75
2023/06/30 04:04:18;;;;;;;12.50;6.43;;;18.20;99.90;;;;;;5016720;28;20043;-74
2023/06/30 04:06:46;;;;;;;11.30;7.13;;;18.20;99.90;;;;;;5016052;28;20351;-74
2023/06/30 04:09:12;;;;;;;11.55;6.60;;;18.10;99.90;;;;;;5016851;28;20045;-74
2023/06/30 04:11:38;;;;;;;9.98;6.90;;;18.10;99.90;;;;;;5015615;28;20034;-74
2023/06/30 04:14:04;;;;;;;9.77;6.05;;;18.10;99.90;;;;;;5016078;28;20048;-74
2023/06/30 04:16:30;;;;;;;10.82;6.78;;;18.10;99.90;;;;;;5015380;28;20038;-74
2023/06/30 04:18:56;;;;;;;14.30;6.85;;;18.10;99.90;;;;;;5016103;28;20037;-75
2023/06/30 04:21:22;;;;;;;7.88;6.60;;;18.00;99.90;;;;;;5015742;28;20026;-75
2023/06/30 04:23:48;;;;;;;15.85;6.15;;;18.00;99.90;;;;;;5016111;28;20041;-74
2023/06/30 04:26:17;;;;;;;8.50;6.43;;;18.00;99.90;;;;;;5015349;28;20034;-75
2023/06/30 04:28:43;;;;;;;9.07;6.47;;;18.10;99.90;;;;;;5015973;28;20033;-74
2023/06/30 04:31:10;;;;;;;13.73;6.50;;;18.10;99.90;;;;;;5015251;28;20395;-74
2023/06/30 04:33:36;;;;;;;12.50;6.32;;;18.10;99.90;;;;;;5015730;28;20038;-74
2023/06/30 04:36:03;;;;;;;11.63;7.03;;;18.10;99.90;;;;;;5010170;28;20026;-74
2023/06/30 04:38:30;;;;;;;10.30;6.63;;;18.00;99.90;;;;;;5011811;28;20050;-75
2023/06/30 04:40:56;;;;;;;10.27;6.55;;;18.00;99.90;;;;;;5001789;28;20053;-75
2023/06/30 04:43:22;;;;;;;10.95;6.45;;;18.00;99.90;;;;;;5015529;28;20022;-74
2023/06/30 04:45:48;;;;;;;11.80;6.88;;;18.00;99.90;;;;;;5014728;28;20034;-74
2023/06/30 04:48:14;;;;;;;8.70;6.70;;;17.90;99.90;;;;;;5007035;28;20027;-74
2023/06/30 04:50:40;;;;;;;12.13;7.53;;;17.90;99.90;;;;;;4999771;28;20072;-75
2023/06/30 04:53:06;;;;;;;12.95;7.28;;;17.90;99.90;;;;;;5014560;28;20053;-75
2023/06/30 04:55:33;;;;;;;13.20;7.35;;;17.90;99.90;;;;;;5014960;28;20494;-75
2023/06/30 04:57:59;;;;;;;11.77;7.93;;;18.00;99.90;;;;;;5014879;28;20030;-75
2023/06/30 05:00:25;;;;;;;9.85;7.18;;;17.90;99.90;;;;;;5014649;28;20030;-75
2023/06/30 05:02:51;;;;;;;12.57;7.28;;;17.90;99.90;;;;;;5015268;28;20033;-75
2023/06/30 05:05:17;;;;;;;7.82;7.03;;;17.90;99.90;;;;;;5015146;28;20030;-74
2023/06/30 05:07:44;;;;;;;10.52;6.88;;;17.90;99.90;;;;;;5015736;28;20037;-75
2023/06/30 05:10:10;;;;;;;8.85;6.65;;;17.80;99.90;;;;;;5014673;28;20041;-75
2023/06/30 05:12:36;;;;;;;11.60;7.00;;;17.80;99.90;;;;;;4974935;28;20029;-75
2023/06/30 05:15:03;;;;;;;8.13;6.80;;;17.90;99.90;;;;;;4976151;28;20039;-74
2023/06/30 05:17:29;;;;;;;14.10;7.20;;;17.80;99.90;;;;;;5013096;28;20499;-74
2023/06/30 05:19:55;;;;;;;8.32;6.78;;;17.90;99.90;;;;;;5014977;28;20037;-74
2023/06/30 05:22:21;;;;;;;18.15;7.63;;;17.90;99.90;;;;;;5014697;28;20498;-75
2023/06/30 05:24:47;;;;;;;9.63;7.22;;;17.90;99.90;;;;;;5014695;28;20037;-76
2023/06/30 05:27:14;;;;;;;8.13;7.38;;;18.00;99.90;;;;;;5015001;28;20061;-74
2023/06/30 05:29:40;;;;;;;12.10;8.25;;;17.90;99.90;;;;;;5015057;28;20038;-75
2023/06/30 05:32:07;;;;;;;9.70;7.25;;;17.90;99.90;;;;;;5014200;28;20030;-74
2023/06/30 05:34:33;;;;;;;14.20;7.47;;;17.90;99.90;;;;;;5012657;28;20513;-74
2023/06/30 05:36:59;;;;;;;11.90;7.28;;;17.90;99.90;;;;;;5013237;28;20041;-75
2023/06/30 05:39:25;;;;;;;15.13;7.60;;;18.00;99.90;;;;;;5014258;28;20490;-74
2023/06/30 05:41:51;;;;;;;11.38;7.00;;;18.00;99.90;;;;;;5014133;28;20034;-74
2023/06/30 05:44:17;;;;;;;14.07;7.80;;;18.10;99.90;;;;;;5014651;28;20407;-74
2023/06/30 05:46:44;;;;;;;8.80;7.13;;;18.10;99.90;;;;;;5013738;28;20030;-74
2023/06/30 05:49:10;;;;;;;13.32;7.53;;;18.30;99.90;;;;;;5014228;28;20411;-74
2023/06/30 05:51:36;;;;;;;14.02;8.02;;;18.40;99.90;;;;;;5014186;28;20045;-75
2023/06/30 05:54:02;;;;;;;11.57;8.90;;;18.50;99.90;;;;;;5013976;28;20038;-75
2023/06/30 05:56:29;;;;;;;13.57;8.38;;;18.60;99.90;;;;;;5014050;28;20030;-74
2023/06/30 05:58:55;;;;;;;9.75;8.02;;;18.70;99.90;;;;;;5014179;28;20364;-75
2023/06/30 06:01:21;;;;;;;9.10;8.18;;;18.70;99.90;;;;;;5011954;28;20395;-75
2023/06/30 06:03:48;;;;;;;8.93;8.13;;;18.80;99.90;;;;;;5014528;28;20113;-75
2023/06/30 06:06:14;;;;;;;13.18;7.78;;;18.80;99.90;;;;;;5013742;28;20052;-75
2023/06/30 06:08:42;;;;;;;8.63;7.43;;;18.80;99.90;;;;;;5013404;28;20026;-75
2023/06/30 06:11:08;;;;;;;8.57;7.28;;;18.80;99.90;;;;;;5012098;28;20022;-74
2023/06/30 06:13:35;;;;;;;12.65;7.93;;;18.80;99.90;;;;;;5013823;28;20041;-75
2023/06/30 06:16:02;;;;;;;10.45;7.50;;;18.80;99.90;;;;;;5012036;28;20030;-75
2023/06/30 06:18:28;;;;;;;10.95;7.75;;;18.80;99.90;;;;;;5013976;28;20030;-74
2023/06/30 06:20:55;;;;;;;10.25;7.65;;;18.80;99.90;;;;;;5013420;28;20038;-75
2023/06/30 06:23:21;;;;;;;9.73;7.10;;;18.80;99.90;;;;;;5013696;28;20022;-75
2023/06/30 06:25:48;;;;;;;10.40;7.47;;;18.80;99.90;;;;;;5013928;28;20042;-75
2023/06/30 06:28:14;;;;;;;8.90;7.13;;;18.80;99.90;;;;;;5012410;28;20486;-75
2023/06/30 06:30:40;;;;;;;8.15;7.15;;;18.80;99.90;;;;;;5013066;28;20037;-74
2023/06/30 06:33:06;;;;;;;11.55;8.05;;;18.80;99.90;;;;;;5012570;28;20024;-75
2023/06/30 06:35:33;;;;;;;8.75;7.63;;;18.70;99.90;;;;;;5012024;28;20053;-75
2023/06/30 06:38:00;;;;;;;8.82;8.02;;;18.70;99.90;;;;;;5013270;28;20041;-75
2023/06/30 06:40:28;;;;;;;10.48;9.48;;;18.90;99.90;;;;;;5013139;28;20053;-75
2023/06/30 06:42:55;;;;;;;12.02;10.85;;;19.00;99.90;;;;;;5013585;28;20034;-75
2023/06/30 06:45:22;;;;;;;18.80;10.80;;;19.20;99.90;;;;;;5027941;28;20389;-75
2023/06/30 06:48:16;;;;;;;13.00;10.38;;;19.30;99.90;;;;;;5013206;28;20041;-75
2023/06/30 06:50:42;;;;;;;9.88;9.07;;;19.40;99.90;;;;;;5012512;28;20050;-75
2023/06/30 06:53:08;;;;;;;11.10;9.70;;;19.70;99.90;;;;;;5012103;28;20034;-74
2023/06/30 06:55:35;;;;;;;12.00;10.95;;;19.90;99.90;;;;;;5012931;28;20046;-76
2023/06/30 06:58:01;;;;;;;13.32;12.13;;;20.20;99.90;;;;;;5013304;28;20352;-75
2023/06/30 07:00:27;;;;;;;13.60;12.38;;;20.40;99.90;;;;;;5012386;28;20022;-75
2023/06/30 07:02:53;;;;;;;13.48;11.73;;;20.60;99.90;;;;;;5028269;28;20052;-75
2023/06/30 07:05:20;;;;;;;14.45;13.25;;;20.80;99.90;;;;;;5012475;28;20041;-75
2023/06/30 07:07:46;;;;;;;13.95;12.82;;;21.00;99.90;;;;;;5013065;28;20042;-76
2023/06/30 07:10:12;;;;;;;16.13;14.82;;;21.20;99.90;;;;;;5012818;28;20033;-75
2023/06/30 07:12:38;;;;;;;14.13;12.82;;;21.30;99.90;;;;;;5012834;28;20360;-75
2023/06/30 07:15:05;;;;;;;13.80;12.70;;;21.50;99.90;;;;;;5012366;28;20050;-75
2023/06/30 07:17:31;;;;;;;15.02;13.55;;;21.60;99.90;;;;;;5012168;28;20061;-74
2023/06/30 07:19:57;;;;;;;16.45;14.98;;;21.50;99.40;;;;;;5012482;28;20022;-75
2023/06/30 07:22:23;;;;;;;18.65;17.05;;;21.40;99.60;;;;;;5012468;28;20030;-75
2023/06/30 07:24:49;;;;;;;29.45;27.42;;;21.40;99.60;;;;;;5013100;28;20045;-75
2023/06/30 07:27:15;;;;;;;32.65;30.45;;;21.40;99.50;;;;;;5012524;28;20030;-76
2023/06/30 07:29:41;;;;;;;38.83;36.42;;;21.40;99.70;;;;;;5012727;28;20030;-75
2023/06/30 07:32:08;;;;;;;44.45;41.80;;;21.60;99.10;;;;;;5012085;28;20038;-75
2023/06/30 07:34:34;;;;;;;32.08;30.13;;;21.70;98.60;;;;;;5012307;28;20478;-75
2023/06/30 07:37:00;;;;;;;42.70;39.83;;;21.50;97.90;;;;;;5012696;28;20041;-75
2023/06/30 07:39:26;;;;;;;45.53;42.83;;;21.30;98.20;;;;;;5012478;28;20479;-74
2023/06/30 07:41:52;;;;;;;44.33;41.75;;;21.40;98.50;;;;;;5012363;28;20030;-75
2023/06/30 07:44:20;;;;;;;36.10;33.67;;;21.40;98.40;;;;;;5012474;28;20045;-75
2023/06/30 07:46:46;;;;;;;37.47;35.38;;;21.50;98.20;;;;;;5011654;28;20041;-75
2023/06/30 07:49:12;;;;;;;37.63;35.42;;;21.50;97.20;;;;;;5011959;28;20049;-76
2023/06/30 07:51:38;;;;;;;32.85;30.95;;;21.50;97.90;;;;;;5012266;28;20467;-75
2023/06/30 07:54:04;;;;;;;34.13;31.92;;;21.60;98.00;;;;;;5012503;28;20045;-75
2023/06/30 07:56:30;;;;;;;34.40;32.40;;;21.60;97.30;;;;;;5012255;28;20030;-76
2023/06/30 07:58:56;;;;;;;26.83;24.88;;;21.70;98.30;;;;;;5012723;28;20032;-75
2023/06/30 08:01:22;;;;;;;27.10;25.20;;;21.70;96.90;;;;;;5011686;28;20034;-75
2023/06/30 08:03:48;;;;;;;30.38;28.48;;;21.70;96.10;;;;;;5012149;28;20375;-74
2023/06/30 08:06:14;;;;;;;21.35;19.75;;;21.70;97.40;;;;;;5012159;28;20098;-75
2023/06/30 08:08:40;;;;;;;20.45;18.98;;;21.90;97.40;;;;;;5012492;28;20029;-76
2023/06/30 08:11:07;;;;;;;22.92;21.33;;;22.10;96.50;;;;;;5012168;28;20057;-76
2023/06/30 08:13:33;;;;;;;21.90;20.13;;;22.30;96.50;;;;;;5011897;28;20506;-75
2023/06/30 08:15:59;;;;;;;23.27;21.60;;;22.40;95.50;;;;;;5011640;28;20049;-74
2023/06/30 08:18:28;;;;;;;21.05;19.65;;;22.20;94.60;;;;;;5011981;28;20459;-75
2023/06/30 08:20:55;;;;;;;19.63;18.50;;;22.10;94.80;;;;;;5012033;28;20042;-75
2023/06/30 08:23:22;;;;;;;21.52;20.02;;;22.20;94.70;;;;;;5012239;28;20451;-75
2023/06/30 08:25:48;;;;;;;25.42;23.83;;;22.20;94.60;;;;;;5012073;28;20034;-76
2023/06/30 08:28:14;;;;;;;22.17;20.65;;;22.30;93.80;;;;;;5011994;28;20249;-75
2023/06/30 08:30:40;;;;;;;22.92;21.52;;;22.40;94.00;;;;;;5005048;28;20412;-75
2023/06/30 08:33:06;;;;;;;26.35;24.77;;;22.40;93.20;;;;;;4993746;28;20042;-76
2023/06/30 08:35:32;;;;;;;31.83;30.05;;;22.50;93.40;;;;;;4996578;28;20050;-75
2023/06/30 08:37:58;;;;;;;31.52;29.83;;;22.50;92.30;;;;;;4996165;28;20033;-75
2023/06/30 08:40:25;;;;;;;29.55;27.55;;;22.50;92.40;;;;;;4995917;28;20034;-75
2023/06/30 08:42:52;;;;;;;27.10;25.00;;;22.60;93.10;;;;;;4996054;28;20026;-75
2023/06/30 08:45:18;;;;;;;29.50;27.70;;;22.70;93.80;;;;;;4998068;28;20090;-75
2023/06/30 08:47:44;;;;;;;30.13;28.33;;;22.70;93.00;;;;;;5015142;28;20041;-75
2023/06/30 08:50:10;;;;;;;29.25;27.40;;;22.80;93.80;;;;;;5015102;28;20058;-75
2023/06/30 08:52:36;;;;;;;43.10;40.42;;;22.90;93.40;;;;;;5014508;28;20396;-75
2023/06/30 08:55:03;;;;;;;37.70;35.65;;;23.10;92.40;;;;;;5015322;28;20034;-75
2023/06/30 08:57:29;;;;;;;37.47;35.05;;;23.10;92.40;;;;;;5030482;28;20494;-76
2023/06/30 08:59:55;;;;;;;34.38;31.98;;;23.20;92.40;;;;;;5030721;28;20034;-74
2023/06/30 09:02:22;;;;;;;38.90;36.65;;;23.10;91.80;;;;;;5014282;28;20038;-74
2023/06/30 09:04:48;;;;;;;43.65;40.85;;;23.10;92.00;;;;;;5014055;28;20493;-75
2023/06/30 09:07:27;;;;;;;40.33;37.88;;;23.20;91.10;;;;;;5030361;28;20034;-75
2023/06/30 09:10:03;;;;;;;32.78;30.63;;;23.10;91.70;;;;;;5029551;28;20041;-76
2023/06/30 09:12:29;;;;;;;34.03;32.20;;;22.80;91.90;;;;;;5014897;28;20386;-75
2023/06/30 09:14:59;;;;;;;36.13;34.28;;;22.80;92.30;;;;;;5030229;28;20062;-75
2023/06/30 09:17:25;;;;;;;40.45;37.95;;;23.00;92.30;;;;;;5029066;28;20486;-75
2023/06/30 09:19:52;;;;;;;43.67;41.38;;;23.20;91.20;;;;;;5029865;28;20050;-75
2023/06/30 09:22:20;;;;;;;41.78;39.45;;;23.20;90.30;;;;;;5014686;28;20034;-75
2023/06/30 09:24:47;;;;;;;46.78;43.65;;;23.30;91.20;;;;;;5014884;28;20467;-75
2023/06/30 09:27:13;;;;;;;39.17;37.05;;;23.40;90.60;;;;;;5014457;28;20044;-75
2023/06/30 09:29:40;;;;;;;44.80;42.25;;;23.40;89.30;;;;;;5030210;28;20042;-75
2023/06/30 09:32:06;;;;;;;41.35;38.78;;;23.40;90.10;;;;;;5013701;28;20041;-75
2023/06/30 09:34:32;;;;;;;43.92;41.08;;;23.40;90.80;;;;;;5014727;28;20474;-75
2023/06/30 09:36:58;;;;;;;42.03;39.72;;;23.50;90.00;;;;;;5029701;28;20037;-75
2023/06/30 09:39:24;;;;;;;42.45;40.35;;;23.50;90.10;;;;;;5014287;28;20453;-74
2023/06/30 09:41:51;;;;;;;41.85;39.38;;;23.50;89.90;;;;;;5014303;28;20018;-75
2023/06/30 09:44:20;;;;;;;40.75;38.28;;;23.30;89.00;;;;;;5014285;28;20471;-74
2023/06/30 09:46:49;;;;;;;41.55;39.15;;;23.30;89.40;;;;;;5013669;28;20411;-75
2023/06/30 09:49:32;;;;;;;38.55;36.22;;;23.30;88.20;;;;;;5014198;28;20056;-75
2023/06/30 09:51:59;;;;;;;41.00;38.80;;;23.20;89.90;;;;;;5013891;28;20046;-75
2023/06/30 09:54:25;;;;;;;30.63;28.35;;;22.90;86.80;;;;;;5014262;28;20025;-74
2023/06/30 09:57:02;;;;;;;31.65;29.95;;;22.70;89.40;;;;;;5029399;28;20037;-75
2023/06/30 09:59:28;;;;;;;28.95;27.15;;;22.80;90.30;;;;;;5013782;28;20037;-75
2023/06/30 10:01:54;;;;;;;33.42;31.30;;;23.00;91.10;;;;;;5028769;28;20034;-75
2023/06/30 10:04:21;;;;;;;34.72;32.72;;;23.20;90.00;;;;;;5029496;28;20034;-75
2023/06/30 10:06:47;;;;;;;34.90;32.90;;;23.40;90.40;;;;;;5013870;28;20033;-75
2023/06/30 10:09:15;;;;;;;42.40;39.88;;;23.60;90.70;;;;;;5029302;28;20475;-76
2023/06/30 10:11:43;;;;;;;49.30;46.35;;;23.80;90.30;;;;;;5013829;28;20038;-76
2023/06/30 10:14:09;;;;;;;42.60;40.15;;;24.00;89.30;;;;;;5028581;28;20026;-76
2023/06/30 10:16:35;;;;;;;57.63;54.72;;;24.20;90.00;;;;;;5028409;28;20034;-75
2023/06/30 10:19:02;;;;;;;64.25;60.75;;;24.30;88.30;;;;;;5029200;28;20037;-75
2023/06/30 10:21:28;;;;;;;57.03;54.13;;;24.40;88.00;;;;;;5028760;28;20541;-75
2023/06/30 10:23:54;;;;;;;66.15;62.78;;;24.50;87.60;;;;;;5029170;28;20034;-75
2023/06/30 10:26:21;;;;;;;64.35;60.90;;;24.70;86.80;;;;;;5028768;28;20030;-75
2023/06/30 10:28:47;;;;;;;59.08;56.05;;;24.90;87.10;;;;;;5013845;28;20045;-76
2023/06/30 10:31:13;;;;;;;63.28;59.97;;;25.10;86.00;;;;;;5012738;28;20044;-75
2023/06/30 10:33:39;;;;;;;59.85;56.80;;;25.20;84.50;;;;;;5028902;28;20028;-76
2023/06/30 10:36:06;;;;;;;53.60;50.90;;;25.30;84.30;;;;;;5028178;28;20045;-76
2023/06/30 10:38:32;;;;;;;51.63;48.83;;;25.30;84.60;;;;;;5013470;28;20030;-76
2023/06/30 10:41:12;;;;;;;53.92;51.22;;;25.30;85.50;;;;;;5028364;28;20038;-75
2023/06/30 10:44:00;;;;;;;51.53;48.83;;;25.20;84.70;;;;;;5013446;28;20375;-76
2023/06/30 10:46:59;;;;;;;61.47;58.20;;;25.20;85.50;;;;;;5012625;28;20273;-76
2023/06/30 10:49:29;;;;;;;53.88;51.08;;;24.90;83.70;;;;;;4968713;28;20047;-76
2023/06/30 10:51:56;;;;;;;49.15;46.55;;;24.80;84.20;;;;;;4966916;28;20046;-76
2023/06/30 10:54:26;;;;;;;51.63;48.92;;;24.90;85.20;;;;;;4972140;28;20039;-76
2023/06/30 10:57:12;;;;;;;49.53;46.95;;;24.80;84.90;;;;;;4970556;28;20763;-76
2023/06/30 10:59:40;;;;;;;53.15;50.50;;;24.60;84.90;;;;;;4971974;28;20054;-76
2023/06/30 11:02:17;;;;;;;52.28;49.55;;;24.30;84.70;;;;;;4954794;28;20039;-76
2023/06/30 11:04:45;;;;;;;50.28;47.67;;;24.20;83.70;;;;;;4952504;29;20031;-76
2023/06/30 11:07:16;;;;;;;46.13;43.63;;;23.90;85.10;;;;;;4951710;28;20047;-76
2023/06/30 11:09:48;;;;;;;38.65;36.30;;;23.90;86.30;;;;;;4952168;29;20050;-76
2023/06/30 11:12:18;;;;;;;44.60;42.17;;;24.00;87.20;;;;;;4952134;28;20055;-76
2023/06/30 11:14:59;;;;;;;43.80;41.47;;;24.10;86.10;;;;;;4951840;29;20039;-76
2023/06/30 11:17:51;;;;;;;49.42;46.90;;;24.30;85.90;;;;;;4951846;28;20484;-75
2023/06/30 11:20:17;;;;;;;51.30;48.60;;;24.40;84.90;;;;;;4952197;28;20031;-75
2023/06/30 11:22:55;;;;;;;52.08;49.35;;;24.30;84.70;;;;;;4952395;28;20042;-76
2023/06/30 11:25:21;;;;;;;48.83;46.33;;;24.20;83.90;;;;;;4977265;28;20553;-76
2023/06/30 11:27:48;;;;;;;41.72;39.33;;;24.00;84.30;;;;;;4992783;28;20033;-76
2023/06/30 11:30:18;;;;;;;38.03;35.78;;;23.80;85.70;;;;;;4993882;28;20494;-75
2023/06/30 11:32:45;;;;;;;33.63;31.77;;;23.80;85.90;;;;;;5012766;28;20419;-76
2023/06/30 11:35:16;;;;;;;34.80;32.80;;;23.70;86.60;;;;;;5012261;28;20042;-75
2023/06/30 11:37:49;;;;;;;35.10;33.10;;;23.70;85.80;;;;;;5012905;28;20042;-76
2023/06/30 11:40:16;;;;;;;41.20;39.00;;;23.70;87.00;;;;;;5012184;28;20399;-75
2023/06/30 11:42:42;;;;;;;31.75;29.85;;;23.60;84.90;;;;;;5012508;28;20038;-76
2023/06/30 11:45:08;;;;;;;35.70;33.65;;;23.70;87.50;;;;;;5012168;28;20033;-75
2023/06/30 11:47:35;;;;;;;33.42;31.63;;;23.80;87.50;;;;;;5012215;28;20037;-76
2023/06/30 11:50:08;;;;;;;33.15;31.38;;;23.80;86.30;;;;;;5011120;28;20408;-76
2023/06/30 11:52:35;;;;;;;32.00;30.20;;;23.70;87.50;;;;;;5012692;28;20053;-76
2023/06/30 11:55:11;;;;;;;31.35;29.35;;;23.80;87.70;;;;;;5012001;28;20034;-75
2023/06/30 11:57:38;;;;;;;33.75;31.90;;;23.70;88.70;;;;;;5012017;28;20038;-76
2023/06/30 12:00:25;;;;;;;36.35;34.35;;;23.80;90.10;;;;;;5012367;28;20042;-75
2023/06/30 12:02:51;;;;;;;36.42;34.22;;;23.80;90.70;;;;;;5012047;28;20042;-75
2023/06/30 12:05:27;;;;;;;39.25;37.13;;;23.70;90.80;;;;;;5011932;28;20045;-75
2023/06/30 12:07:57;;;;;;;35.80;33.65;;;23.70;91.50;;;;;;5013570;28;20022;-76
2023/06/30 12:10:38;;;;;;;41.73;39.37;;;23.60;92.00;;;;;;5015925;28;20026;-77
2023/06/30 12:13:07;;;;;;;43.92;41.13;;;23.40;92.90;;;;;;5016745;28;20038;-76
2023/06/30 12:15:35;;;;;;;46.75;43.65;;;23.20;93.70;;;;;;5015343;28;20049;-76
2023/06/30 12:18:04;;;;;;;41.30;39.05;;;23.10;95.10;;;;;;5016189;28;20387;-75
2023/06/30 12:20:35;;;;;;;43.60;41.22;;;23.10;95.60;;;;;;5016103;28;20471;-74
2023/06/30 12:23:01;;;;;;;;;;;23.00;94.80;;;;;;5016503;28;20053;-75
2023/06/30 12:25:34;;;;;;;36.65;34.50;;;22.80;96.20;;;;;;5014089;28;19905;-74
2023/06/30 12:28:04;;;;;;;52.45;49.55;;;22.80;97.00;;;;;;5016172;28;20042;-75
2023/06/30 12:30:30;;;;;;;66.82;63.10;;;22.90;97.60;;;;;;5030500;28;20040;-74
2023/06/30 12:32:58;;;;;;;59.10;55.90;;;23.10;98.10;;;;;;5031236;28;20030;-74
2023/06/30 12:35:31;;;;;;;65.88;62.42;;;23.30;98.40;;;;;;5014922;28;20491;-75